sensor_id;sensor_type;location;lat;lon;timestamp;temperature;humidity
68026;SHT31;54819;48.030;14.710;2023-06-22T00:01:19;21.57;67.96
68026;SHT31;54819;48.030;14.710;2023-06-22T00:03:47;21.53;67.90
68026;SHT31;54819;48.030;14.710;2023-06-22T00:06:14;21.51;68.58
68026;SHT31;54819;48.030;14.710;2023-06-22T00:08:41;21.49;68.44
68026;SHT31;54819;48.030;14.710;2023-06-22T00:11:08;21.46;69.10
68026;SHT31;54819;48.030;14.710;2023-06-22T00:13:35;21.43;68.80
68026;SHT31;54819;48.030;14.710;2023-06-22T00:16:02;21.41;69.36
68026;SHT31;54819;48.030;14.710;2023-06-22T00:18:28;21.39;69.14
68026;SHT31;54819;48.030;14.710;2023-06-22T00:20:57;21.36;69.04
68026;SHT31;54819;48.030;14.710;2023-06-22T00:23:25;21.34;68.78
68026;SHT31;54819;48.030;14.710;2023-06-22T00:25:52;21.30;69.75
68026;SHT31;54819;48.030;14.710;2023-06-22T00:28:19;21.27;69.06
68026;SHT31;54819;48.030;14.710;2023-06-22T00:30:45;21.25;69.36
68026;SHT31;54819;48.030;14.710;2023-06-22T00:33:14;21.23;69.32
68026;SHT31;54819;48.030;14.710;2023-06-22T00:35:43;21.22;68.69
68026;SHT31;54819;48.030;14.710;2023-06-22T00:38:09;21.20;69.08
68026;SHT31;54819;48.030;14.710;2023-06-22T00:40:36;21.18;68.81
68026;SHT31;54819;48.030;14.710;2023-06-22T00:43:03;21.17;69.50
68026;SHT31;54819;48.030;14.710;2023-06-22T00:45:31;21.13;70.34
68026;SHT31;54819;48.030;14.710;2023-06-22T00:47:58;21.11;69.91
68026;SHT31;54819;48.030;14.710;2023-06-22T00:50:27;21.08;69.93
68026;SHT31;54819;48.030;14.710;2023-06-22T00:53:04;21.08;70.05
68026;SHT31;54819;48.030;14.710;2023-06-22T00:55:36;21.06;70.96
68026;SHT31;54819;48.030;14.710;2023-06-22T00:58:08;21.04;70.68
68026;SHT31;54819;48.030;14.710;2023-06-22T01:00:37;21.04;70.88
68026;SHT31;54819;48.030;14.710;2023-06-22T01:03:08;21.03;71.28
68026;SHT31;54819;48.030;14.710;2023-06-22T01:05:36;21.04;71.01
68026;SHT31;54819;48.030;14.710;2023-06-22T01:11:12;21.03;70.90
68026;SHT31;54819;48.030;14.710;2023-06-22T01:14:12;21.03;71.26
68026;SHT31;54819;48.030;14.710;2023-06-22T01:16:44;21.04;70.32
68026;SHT31;54819;48.030;14.710;2023-06-22T01:22:16;21.07;70.27
68026;SHT31;54819;48.030;14.710;2023-06-22T01:28:10;21.06;70.23
68026;SHT31;54819;48.030;14.710;2023-06-22T01:30:42;21.05;69.15
68026;SHT31;54819;48.030;14.710;2023-06-22T01:33:13;21.04;69.40
68026;SHT31;54819;48.030;14.710;2023-06-22T01:35:40;21.02;69.56
68026;SHT31;54819;48.030;14.710;2023-06-22T01:38:08;21.00;68.90
68026;SHT31;54819;48.030;14.710;2023-06-22T01:40:36;20.98;69.04
68026;SHT31;54819;48.030;14.710;2023-06-22T01:43:03;20.96;69.31
68026;SHT31;54819;48.030;14.710;2023-06-22T01:45:30;20.89;69.32
68026;SHT31;54819;48.030;14.710;2023-06-22T01:47:56;20.85;69.16
68026;SHT31;54819;48.030;14.710;2023-06-22T01:50:24;20.81;69.55
68026;SHT31;54819;48.030;14.710;2023-06-22T01:52:50;20.77;69.23
68026;SHT31;54819;48.030;14.710;2023-06-22T01:55:18;20.73;69.44
68026;SHT31;54819;48.030;14.710;2023-06-22T01:57:47;20.68;69.75
68026;SHT31;54819;48.030;14.710;2023-06-22T02:00:15;20.63;70.03
68026;SHT31;54819;48.030;14.710;2023-06-22T02:05:26;20.52;70.11
68026;SHT31;54819;48.030;14.710;2023-06-22T02:08:07;20.48;69.98
68026;SHT31;54819;48.030;14.710;2023-06-22T02:10:37;20.42;70.12
68026;SHT31;54819;48.030;14.710;2023-06-22T02:13:07;20.35;69.66
68026;SHT31;54819;48.030;14.710;2023-06-22T02:15:36;20.29;69.98
68026;SHT31;54819;48.030;14.710;2023-06-22T02:18:03;20.21;70.64
68026;SHT31;54819;48.030;14.710;2023-06-22T02:20:30;20.14;71.18
68026;SHT31;54819;48.030;14.710;2023-06-22T02:22:57;20.09;70.67
68026;SHT31;54819;48.030;14.710;2023-06-22T02:25:24;20.07;71.18
68026;SHT31;54819;48.030;14.710;2023-06-22T02:27:50;20.03;71.23
68026;SHT31;54819;48.030;14.710;2023-06-22T02:30:17;19.97;71.30
68026;SHT31;54819;48.030;14.710;2023-06-22T02:32:44;19.92;71.23
68026;SHT31;54819;48.030;14.710;2023-06-22T02:35:14;19.89;71.52
68026;SHT31;54819;48.030;14.710;2023-06-22T02:37:41;19.85;71.08
68026;SHT31;54819;48.030;14.710;2023-06-22T02:40:08;19.84;71.46
68026;SHT31;54819;48.030;14.710;2023-06-22T02:42:36;19.83;71.51
68026;SHT31;54819;48.030;14.710;2023-06-22T02:45:04;19.80;71.39
68026;SHT31;54819;48.030;14.710;2023-06-22T02:47:31;19.79;71.95
68026;SHT31;54819;48.030;14.710;2023-06-22T02:49:59;19.79;71.71
68026;SHT31;54819;48.030;14.710;2023-06-22T02:52:25;19.78;72.05
68026;SHT31;54819;48.030;14.710;2023-06-22T02:54:52;19.78;71.97
68026;SHT31;54819;48.030;14.710;2023-06-22T02:57:19;19.77;72.24
68026;SHT31;54819;48.030;14.710;2023-06-22T02:59:45;19.79;72.26
68026;SHT31;54819;48.030;14.710;2023-06-22T03:02:12;19.81;72.56
68026;SHT31;54819;48.030;14.710;2023-06-22T03:04:39;19.82;72.36
68026;SHT31;54819;48.030;14.710;2023-06-22T03:07:06;19.84;72.40
68026;SHT31;54819;48.030;14.710;2023-06-22T03:09:33;19.83;73.96
68026;SHT31;54819;48.030;14.710;2023-06-22T03:11:59;19.81;73.90
68026;SHT31;54819;48.030;14.710;2023-06-22T03:14:35;19.82;73.04
68026;SHT31;54819;48.030;14.710;2023-06-22T03:17:02;19.83;72.26
68026;SHT31;54819;48.030;14.710;2023-06-22T03:19:29;19.83;72.19
68026;SHT31;54819;48.030;14.710;2023-06-22T03:21:59;19.81;72.42
68026;SHT31;54819;48.030;14.710;2023-06-22T03:24:26;19.80;72.16
68026;SHT31;54819;48.030;14.710;2023-06-22T03:26:55;19.80;72.23
68026;SHT31;54819;48.030;14.710;2023-06-22T03:29:23;19.82;72.47
68026;SHT31;54819;48.030;14.710;2023-06-22T03:31:50;19.84;72.54
68026;SHT31;54819;48.030;14.710;2023-06-22T03:34:17;19.88;73.17
68026;SHT31;54819;48.030;14.710;2023-06-22T03:36:45;19.90;72.71
68026;SHT31;54819;48.030;14.710;2023-06-22T03:39:11;19.96;72.87
68026;SHT31;54819;48.030;14.710;2023-06-22T03:41:39;20.01;72.38
68026;SHT31;54819;48.030;14.710;2023-06-22T03:44:05;20.06;72.92
68026;SHT31;54819;48.030;14.710;2023-06-22T03:46:32;20.10;71.80
68026;SHT31;54819;48.030;14.710;2023-06-22T03:48:59;20.11;71.05
68026;SHT31;54819;48.030;14.710;2023-06-22T03:51:27;20.00;72.34
68026;SHT31;54819;48.030;14.710;2023-06-22T03:53:54;19.88;73.59
68026;SHT31;54819;48.030;14.710;2023-06-22T03:56:21;19.83;72.52
68026;SHT31;54819;48.030;14.710;2023-06-22T03:58:47;19.78;72.37
68026;SHT31;54819;48.030;14.710;2023-06-22T04:01:14;19.70;73.45
68026;SHT31;54819;48.030;14.710;2023-06-22T04:03:43;19.65;73.76
68026;SHT31;54819;48.030;14.710;2023-06-22T04:06:10;19.64;73.87
68026;SHT31;54819;48.030;14.710;2023-06-22T04:08:36;19.66;73.06
68026;SHT31;54819;48.030;14.710;2023-06-22T04:11:03;19.65;74.75
68026;SHT31;54819;48.030;14.710;2023-06-22T04:13:30;19.69;74.21
68026;SHT31;54819;48.030;14.710;2023-06-22T04:15:56;19.79;73.53
68026;SHT31;54819;48.030;14.710;2023-06-22T04:18:23;19.89;73.32
68026;SHT31;54819;48.030;14.710;2023-06-22T04:20:50;20.01;72.85
68026;SHT31;54819;48.030;14.710;2023-06-22T04:23:16;20.10;73.59
68026;SHT31;54819;48.030;14.710;2023-06-22T04:25:43;20.17;73.69
68026;SHT31;54819;48.030;14.710;2023-06-22T04:28:10;20.26;73.46
68026;SHT31;54819;48.030;14.710;2023-06-22T04:30:39;20.37;73.72
68026;SHT31;54819;48.030;14.710;2023-06-22T04:33:16;20.48;73.63
68026;SHT31;54819;48.030;14.710;2023-06-22T04:35:45;20.61;73.22
68026;SHT31;54819;48.030;14.710;2023-06-22T04:38:12;20.74;72.83
68026;SHT31;54819;48.030;14.710;2023-06-22T04:40:39;20.93;72.56
68026;SHT31;54819;48.030;14.710;2023-06-22T04:43:06;21.20;72.07
68026;SHT31;54819;48.030;14.710;2023-06-22T04:45:33;21.54;71.51
68026;SHT31;54819;48.030;14.710;2023-06-22T04:48:00;21.82;71.06
68026;SHT31;54819;48.030;14.710;2023-06-22T04:50:26;22.20;70.35
68026;SHT31;54819;48.030;14.710;2023-06-22T04:52:53;22.68;69.56
68026;SHT31;54819;48.030;14.710;2023-06-22T04:55:20;23.14;68.93
68026;SHT31;54819;48.030;14.710;2023-06-22T04:57:47;23.57;68.67
68026;SHT31;54819;48.030;14.710;2023-06-22T05:00:18;24.03;67.82
68026;SHT31;54819;48.030;14.710;2023-06-22T05:02:49;24.61;65.96
68026;SHT31;54819;48.030;14.710;2023-06-22T05:05:16;25.09;64.27
68026;SHT31;54819;48.030;14.710;2023-06-22T05:07:45;25.49;62.94
68026;SHT31;54819;48.030;14.710;2023-06-22T05:10:15;25.89;63.53
68026;SHT31;54819;48.030;14.710;2023-06-22T05:12:41;26.13;61.25
68026;SHT31;54819;48.030;14.710;2023-06-22T05:15:08;26.53;61.71
68026;SHT31;54819;48.030;14.710;2023-06-22T05:17:35;26.93;61.06
68026;SHT31;54819;48.030;14.710;2023-06-22T05:20:03;27.10;59.05
68026;SHT31;54819;48.030;14.710;2023-06-22T05:22:32;27.25;58.04
68026;SHT31;54819;48.030;14.710;2023-06-22T05:24:59;27.31;58.26
68026;SHT31;54819;48.030;14.710;2023-06-22T05:27:26;27.08;57.25
68026;SHT31;54819;48.030;14.710;2023-06-22T05:29:53;26.87;57.88
68026;SHT31;54819;48.030;14.710;2023-06-22T05:32:19;26.69;58.80
68026;SHT31;54819;48.030;14.710;2023-06-22T05:34:46;26.53;58.61
68026;SHT31;54819;48.030;14.710;2023-06-22T05:37:13;26.31;58.64
68026;SHT31;54819;48.030;14.710;2023-06-22T05:39:40;26.00;58.78
68026;SHT31;54819;48.030;14.710;2023-06-22T05:42:07;25.77;59.59
68026;SHT31;54819;48.030;14.710;2023-06-22T05:44:36;25.63;60.14
68026;SHT31;54819;48.030;14.710;2023-06-22T05:47:03;25.48;60.17
68026;SHT31;54819;48.030;14.710;2023-06-22T05:49:30;25.26;60.62
68026;SHT31;54819;48.030;14.710;2023-06-22T05:51:59;25.07;61.19
68026;SHT31;54819;48.030;14.710;2023-06-22T05:54:29;24.98;61.36
68026;SHT31;54819;48.030;14.710;2023-06-22T05:56:57;24.91;61.18
68026;SHT31;54819;48.030;14.710;2023-06-22T05:59:23;24.93;61.43
68026;SHT31;54819;48.030;14.710;2023-06-22T06:01:50;25.01;61.52
68026;SHT31;54819;48.030;14.710;2023-06-22T06:04:17;25.07;61.23
68026;SHT31;54819;48.030;14.710;2023-06-22T06:06:45;25.05;60.86
68026;SHT31;54819;48.030;14.710;2023-06-22T06:09:13;25.08;60.99
68026;SHT31;54819;48.030;14.710;2023-06-22T06:11:40;25.09;60.72
68026;SHT31;54819;48.030;14.710;2023-06-22T06:14:07;25.11;61.09
68026;SHT31;54819;48.030;14.710;2023-06-22T06:16:34;25.18;61.20
68026;SHT31;54819;48.030;14.710;2023-06-22T06:19:01;25.28;60.96
68026;SHT31;54819;48.030;14.710;2023-06-22T06:21:27;25.29;61.14
68026;SHT31;54819;48.030;14.710;2023-06-22T06:23:56;25.33;61.43
68026;SHT31;54819;48.030;14.710;2023-06-22T06:26:23;25.28;61.74
68026;SHT31;54819;48.030;14.710;2023-06-22T06:28:55;25.26;61.98
68026;SHT31;54819;48.030;14.710;2023-06-22T06:31:22;25.23;61.69
68026;SHT31;54819;48.030;14.710;2023-06-22T06:33:49;25.22;61.42
68026;SHT31;54819;48.030;14.710;2023-06-22T06:36:16;25.27;61.86
68026;SHT31;54819;48.030;14.710;2023-06-22T06:38:43;25.36;61.53
68026;SHT31;54819;48.030;14.710;2023-06-22T06:41:10;25.42;61.22
68026;SHT31;54819;48.030;14.710;2023-06-22T06:43:36;25.44;61.54
68026;SHT31;54819;48.030;14.710;2023-06-22T06:46:03;25.51;61.74
68026;SHT31;54819;48.030;14.710;2023-06-22T06:48:30;25.65;61.45
68026;SHT31;54819;48.030;14.710;2023-06-22T06:50:57;25.80;61.31
68026;SHT31;54819;48.030;14.710;2023-06-22T06:53:23;25.94;60.82
68026;SHT31;54819;48.030;14.710;2023-06-22T06:55:50;26.02;60.53
68026;SHT31;54819;48.030;14.710;2023-06-22T06:58:16;26.07;60.64
68026;SHT31;54819;48.030;14.710;2023-06-22T07:00:43;26.10;60.62
68026;SHT31;54819;48.030;14.710;2023-06-22T07:03:10;26.10;60.90
68026;SHT31;54819;48.030;14.710;2023-06-22T07:05:37;26.16;61.08
68026;SHT31;54819;48.030;14.710;2023-06-22T07:08:04;26.19;61.12
68026;SHT31;54819;48.030;14.710;2023-06-22T07:10:30;26.10;60.78
68026;SHT31;54819;48.030;14.710;2023-06-22T07:12:58;25.97;61.27
68026;SHT31;54819;48.030;14.710;2023-06-22T07:15:24;25.91;61.76
68026;SHT31;54819;48.030;14.710;2023-06-22T07:17:51;25.95;61.97
68026;SHT31;54819;48.030;14.710;2023-06-22T07:20:18;26.02;62.01
68026;SHT31;54819;48.030;14.710;2023-06-22T07:22:46;26.08;61.54
68026;SHT31;54819;48.030;14.710;2023-06-22T07:25:12;26.15;60.98
68026;SHT31;54819;48.030;14.710;2023-06-22T07:27:45;26.25;61.57
68026;SHT31;54819;48.030;14.710;2023-06-22T07:30:13;26.45;61.00
68026;SHT31;54819;48.030;14.710;2023-06-22T07:32:40;26.51;60.72
68026;SHT31;54819;48.030;14.710;2023-06-22T07:35:08;26.64;60.90
68026;SHT31;54819;48.030;14.710;2023-06-22T07:37:35;26.78;60.77
68026;SHT31;54819;48.030;14.710;2023-06-22T07:40:02;26.78;60.25
68026;SHT31;54819;48.030;14.710;2023-06-22T07:42:32;26.70;60.46
68026;SHT31;54819;48.030;14.710;2023-06-22T07:44:59;26.70;60.54
68026;SHT31;54819;48.030;14.710;2023-06-22T07:47:26;26.69;60.51
68026;SHT31;54819;48.030;14.710;2023-06-22T07:49:55;26.70;60.01
68026;SHT31;54819;48.030;14.710;2023-06-22T07:52:24;26.66;60.53
68026;SHT31;54819;48.030;14.710;2023-06-22T07:54:54;26.74;60.37
68026;SHT31;54819;48.030;14.710;2023-06-22T07:57:20;26.76;60.36
68026;SHT31;54819;48.030;14.710;2023-06-22T07:59:47;26.84;60.62
68026;SHT31;54819;48.030;14.710;2023-06-22T08:02:14;26.95;60.73
68026;SHT31;54819;48.030;14.710;2023-06-22T08:04:41;27.05;60.30
68026;SHT31;54819;48.030;14.710;2023-06-22T08:07:08;27.10;59.94
68026;SHT31;54819;48.030;14.710;2023-06-22T08:09:34;27.19;59.77
68026;SHT31;54819;48.030;14.710;2023-06-22T08:12:01;27.27;59.88
68026;SHT31;54819;48.030;14.710;2023-06-22T08:14:29;27.42;59.62
68026;SHT31;54819;48.030;14.710;2023-06-22T08:16:56;27.61;59.71
68026;SHT31;54819;48.030;14.710;2023-06-22T08:19:22;27.67;59.16
68026;SHT31;54819;48.030;14.710;2023-06-22T08:21:49;27.64;59.09
68026;SHT31;54819;48.030;14.710;2023-06-22T08:24:16;27.58;59.14
68026;SHT31;54819;48.030;14.710;2023-06-22T08:26:42;27.40;59.01
68026;SHT31;54819;48.030;14.710;2023-06-22T08:29:09;27.20;59.47
68026;SHT31;54819;48.030;14.710;2023-06-22T08:31:35;26.97;60.01
68026;SHT31;54819;48.030;14.710;2023-06-22T08:34:03;26.85;60.26
68026;SHT31;54819;48.030;14.710;2023-06-22T08:36:29;26.89;60.34
68026;SHT31;54819;48.030;14.710;2023-06-22T08:38:59;27.02;60.17
68026;SHT31;54819;48.030;14.710;2023-06-22T08:41:29;27.15;60.52
68026;SHT31;54819;48.030;14.710;2023-06-22T08:43:57;27.33;60.17
68026;SHT31;54819;48.030;14.710;2023-06-22T08:46:24;27.48;60.12
68026;SHT31;54819;48.030;14.710;2023-06-22T08:48:57;27.60;59.88
68026;SHT31;54819;48.030;14.710;2023-06-22T08:51:24;27.72;59.50
68026;SHT31;54819;48.030;14.710;2023-06-22T08:53:51;27.80;59.06
68026;SHT31;54819;48.030;14.710;2023-06-22T08:56:17;27.89;58.76
68026;SHT31;54819;48.030;14.710;2023-06-22T08:58:45;27.89;58.44
68026;SHT31;54819;48.030;14.710;2023-06-22T09:01:12;27.96;58.35
68026;SHT31;54819;48.030;14.710;2023-06-22T09:03:38;28.09;58.63
68026;SHT31;54819;48.030;14.710;2023-06-22T09:06:05;28.17;57.78
68026;SHT31;54819;48.030;14.710;2023-06-22T09:08:32;28.22;58.07
68026;SHT31;54819;48.030;14.710;2023-06-22T09:10:59;28.30;57.71
68026;SHT31;54819;48.030;14.710;2023-06-22T09:13:26;28.25;57.13
68026;SHT31;54819;48.030;14.710;2023-06-22T09:15:52;28.20;57.50
68026;SHT31;54819;48.030;14.710;2023-06-22T09:18:19;28.23;57.97
68026;SHT31;54819;48.030;14.710;2023-06-22T09:20:46;28.37;57.92
68026;SHT31;54819;48.030;14.710;2023-06-22T09:23:12;28.50;58.08
68026;SHT31;54819;48.030;14.710;2023-06-22T09:25:39;28.55;57.89
68026;SHT31;54819;48.030;14.710;2023-06-22T09:28:07;28.55;57.91
68026;SHT31;54819;48.030;14.710;2023-06-22T09:30:33;28.53;57.70
68026;SHT31;54819;48.030;14.710;2023-06-22T09:33:00;28.51;57.97
68026;SHT31;54819;48.030;14.710;2023-06-22T09:35:27;28.56;58.24
68026;SHT31;54819;48.030;14.710;2023-06-22T09:37:54;28.55;57.87
68026;SHT31;54819;48.030;14.710;2023-06-22T09:40:21;28.42;58.01
68026;SHT31;54819;48.030;14.710;2023-06-22T09:42:48;28.38;58.33
68026;SHT31;54819;48.030;14.710;2023-06-22T09:45:15;28.46;58.62
68026;SHT31;54819;48.030;14.710;2023-06-22T09:47:42;28.51;58.19
68026;SHT31;54819;48.030;14.710;2023-06-22T09:50:09;28.53;58.21
68026;SHT31;54819;48.030;14.710;2023-06-22T09:52:36;28.68;58.42
68026;SHT31;54819;48.030;14.710;2023-06-22T09:55:07;28.73;58.10
68026;SHT31;54819;48.030;14.710;2023-06-22T09:57:34;28.74;58.79
68026;SHT31;54819;48.030;14.710;2023-06-22T10:00:00;28.89;58.50
68026;SHT31;54819;48.030;14.710;2023-06-22T10:02:31;28.96;58.41
68026;SHT31;54819;48.030;14.710;2023-06-22T10:04:58;28.88;58.28
68026;SHT31;54819;48.030;14.710;2023-06-22T10:07:26;28.91;58.23
68026;SHT31;54819;48.030;14.710;2023-06-22T10:09:52;28.89;57.89
68026;SHT31;54819;48.030;14.710;2023-06-22T10:12:19;28.88;58.12
68026;SHT31;54819;48.030;14.710;2023-06-22T10:14:45;28.88;58.47
68026;SHT31;54819;48.030;14.710;2023-06-22T10:17:12;28.86;58.32
68026;SHT31;54819;48.030;14.710;2023-06-22T10:19:39;28.88;58.63
68026;SHT31;54819;48.030;14.710;2023-06-22T10:22:07;29.04;58.36
68026;SHT31;54819;48.030;14.710;2023-06-22T10:24:34;29.05;58.10
68026;SHT31;54819;48.030;14.710;2023-06-22T10:27:01;29.06;58.42
68026;SHT31;54819;48.030;14.710;2023-06-22T10:29:27;29.16;58.33
68026;SHT31;54819;48.030;14.710;2023-06-22T10:31:54;29.31;58.32
68026;SHT31;54819;48.030;14.710;2023-06-22T10:34:20;29.37;58.08
68026;SHT31;54819;48.030;14.710;2023-06-22T10:36:47;29.42;58.32
68026;SHT31;54819;48.030;14.710;2023-06-22T10:39:15;29.48;57.98
68026;SHT31;54819;48.030;14.710;2023-06-22T10:41:42;29.57;57.70
68026;SHT31;54819;48.030;14.710;2023-06-22T10:44:08;29.68;57.32
68026;SHT31;54819;48.030;14.710;2023-06-22T10:46:35;29.71;56.88
68026;SHT31;54819;48.030;14.710;2023-06-22T10:49:02;29.71;57.13
68026;SHT31;54819;48.030;14.710;2023-06-22T10:51:28;29.69;57.42
68026;SHT31;54819;48.030;14.710;2023-06-22T10:53:55;29.76;57.21
68026;SHT31;54819;48.030;14.710;2023-06-22T10:56:22;29.79;56.83
68026;SHT31;54819;48.030;14.710;2023-06-22T10:58:49;29.76;57.06
68026;SHT31;54819;48.030;14.710;2023-06-22T11:01:15;29.81;57.39
68026;SHT31;54819;48.030;14.710;2023-06-22T11:04:02;29.89;57.38
68026;SHT31;54819;48.030;14.710;2023-06-22T11:06:31;29.94;56.92
68026;SHT31;54819;48.030;14.710;2023-06-22T11:08:57;29.94;57.41
68026;SHT31;54819;48.030;14.710;2023-06-22T11:11:42;30.05;56.87
68026;SHT31;54819;48.030;14.710;2023-06-22T11:14:09;30.10;56.60
68026;SHT31;54819;48.030;14.710;2023-06-22T11:16:36;30.06;56.39
68026;SHT31;54819;48.030;14.710;2023-06-22T11:19:04;30.03;56.83
68026;SHT31;54819;48.030;14.710;2023-06-22T11:21:31;30.07;56.66
68026;SHT31;54819;48.030;14.710;2023-06-22T11:23:59;30.12;56.05
68026;SHT31;54819;48.030;14.710;2023-06-22T11:26:27;30.14;56.41
68026;SHT31;54819;48.030;14.710;2023-06-22T11:28:53;30.26;56.52
68026;SHT31;54819;48.030;14.710;2023-06-22T11:31:20;30.34;56.31
68026;SHT31;54819;48.030;14.710;2023-06-22T11:33:52;30.30;56.07
68026;SHT31;54819;48.030;14.710;2023-06-22T11:36:19;30.28;56.22
68026;SHT31;54819;48.030;14.710;2023-06-22T11:38:46;30.25;56.22
68026;SHT31;54819;48.030;14.710;2023-06-22T11:41:13;30.25;56.33
68026;SHT31;54819;48.030;14.710;2023-06-22T11:43:39;30.32;56.19
68026;SHT31;54819;48.030;14.710;2023-06-22T11:46:06;30.36;55.69
68026;SHT31;54819;48.030;14.710;2023-06-22T11:48:33;30.38;55.94
68026;SHT31;54819;48.030;14.710;2023-06-22T11:51:00;30.41;55.85
68026;SHT31;54819;48.030;14.710;2023-06-22T11:53:29;30.38;55.80
68026;SHT31;54819;48.030;14.710;2023-06-22T11:55:56;30.42;56.12
68026;SHT31;54819;48.030;14.710;2023-06-22T11:58:22;30.49;56.06
68026;SHT31;54819;48.030;14.710;2023-06-22T12:00:49;30.58;55.80
68026;SHT31;54819;48.030;14.710;2023-06-22T12:03:18;30.67;55.71
68026;SHT31;54819;48.030;14.710;2023-06-22T12:05:46;30.81;55.94
68026;SHT31;54819;48.030;14.710;2023-06-22T12:08:13;30.93;55.10
68026;SHT31;54819;48.030;14.710;2023-06-22T12:10:40;30.96;54.87
68026;SHT31;54819;48.030;14.710;2023-06-22T12:13:07;30.94;54.98
68026;SHT31;54819;48.030;14.710;2023-06-22T12:15:34;31.03;54.74
68026;SHT31;54819;48.030;14.710;2023-06-22T12:18:00;31.07;54.14
68026;SHT31;54819;48.030;14.710;2023-06-22T12:20:28;31.02;53.89
68026;SHT31;54819;48.030;14.710;2023-06-22T12:22:55;30.95;54.18
68026;SHT31;54819;48.030;14.710;2023-06-22T12:25:24;30.97;54.43
68026;SHT31;54819;48.030;14.710;2023-06-22T12:27:51;31.01;54.33
68026;SHT31;54819;48.030;14.710;2023-06-22T12:30:18;31.04;54.30
68026;SHT31;54819;48.030;14.710;2023-06-22T12:32:45;31.12;54.36
68026;SHT31;54819;48.030;14.710;2023-06-22T12:35:12;31.16;53.71
68026;SHT31;54819;48.030;14.710;2023-06-22T12:37:41;31.21;53.83
68026;SHT31;54819;48.030;14.710;2023-06-22T12:40:08;31.23;53.79
68026;SHT31;54819;48.030;14.710;2023-06-22T12:42:36;31.32;53.88
68026;SHT31;54819;48.030;14.710;2023-06-22T12:45:04;31.38;53.65
68026;SHT31;54819;48.030;14.710;2023-06-22T12:47:31;31.36;53.87
68026;SHT31;54819;48.030;14.710;2023-06-22T12:49:58;31.33;53.83
68026;SHT31;54819;48.030;14.710;2023-06-22T12:52:24;31.27;53.73
68026;SHT31;54819;48.030;14.710;2023-06-22T12:54:51;31.25;53.85
68026;SHT31;54819;48.030;14.710;2023-06-22T12:57:21;31.24;53.51
68026;SHT31;54819;48.030;14.710;2023-06-22T12:59:48;31.20;53.88
68026;SHT31;54819;48.030;14.710;2023-06-22T13:02:15;31.17;53.97
68026;SHT31;54819;48.030;14.710;2023-06-22T13:04:42;31.15;54.51
68026;SHT31;54819;48.030;14.710;2023-06-22T13:07:09;31.29;54.41
68026;SHT31;54819;48.030;14.710;2023-06-22T13:09:49;31.42;54.11
68026;SHT31;54819;48.030;14.710;2023-06-22T13:12:22;31.59;53.98
68026;SHT31;54819;48.030;14.710;2023-06-22T13:14:49;31.64;53.43
68026;SHT31;54819;48.030;14.710;2023-06-22T13:17:16;31.57;53.62
68026;SHT31;54819;48.030;14.710;2023-06-22T13:19:43;31.54;54.01
68026;SHT31;54819;48.030;14.710;2023-06-22T13:22:26;31.50;54.26
68026;SHT31;54819;48.030;14.710;2023-06-22T13:24:54;31.46;54.22
68026;SHT31;54819;48.030;14.710;2023-06-22T13:27:22;31.34;54.38
68026;SHT31;54819;48.030;14.710;2023-06-22T13:29:49;31.30;54.28
68026;SHT31;54819;48.030;14.710;2023-06-22T13:32:17;31.27;54.48
68026;SHT31;54819;48.030;14.710;2023-06-22T13:34:43;31.34;54.58
68026;SHT31;54819;48.030;14.710;2023-06-22T13:37:10;31.37;54.52
68026;SHT31;54819;48.030;14.710;2023-06-22T13:39:37;31.38;54.47
68026;SHT31;54819;48.030;14.710;2023-06-22T13:42:04;31.45;54.45
68026;SHT31;54819;48.030;14.710;2023-06-22T13:44:31;31.45;54.00
68026;SHT31;54819;48.030;14.710;2023-06-22T13:46:57;31.45;54.38
68026;SHT31;54819;48.030;14.710;2023-06-22T13:49:24;31.56;54.32
68026;SHT31;54819;48.030;14.710;2023-06-22T13:51:51;31.59;54.12
68026;SHT31;54819;48.030;14.710;2023-06-22T13:54:17;31.67;54.13
68026;SHT31;54819;48.030;14.710;2023-06-22T13:56:55;31.75;53.78
68026;SHT31;54819;48.030;14.710;2023-06-22T13:59:22;31.76;53.71
68026;SHT31;54819;48.030;14.710;2023-06-22T14:01:49;31.74;53.54
68026;SHT31;54819;48.030;14.710;2023-06-22T14:04:16;31.68;54.05
68026;SHT31;54819;48.030;14.710;2023-06-22T14:06:42;31.73;54.27
68026;SHT31;54819;48.030;14.710;2023-06-22T14:09:09;31.76;54.24
68026;SHT31;54819;48.030;14.710;2023-06-22T14:11:36;31.81;54.15
68026;SHT31;54819;48.030;14.710;2023-06-22T14:14:03;31.77;54.00
68026;SHT31;54819;48.030;14.710;2023-06-22T14:16:30;31.73;54.58
68026;SHT31;54819;48.030;14.710;2023-06-22T14:18:57;31.82;54.33
68026;SHT31;54819;48.030;14.710;2023-06-22T14:21:24;31.86;54.42
68026;SHT31;54819;48.030;14.710;2023-06-22T14:23:52;31.90;54.10
68026;SHT31;54819;48.030;14.710;2023-06-22T14:26:19;31.86;53.80
68026;SHT31;54819;48.030;14.710;2023-06-22T14:28:46;31.82;54.01
68026;SHT31;54819;48.030;14.710;2023-06-22T14:31:15;31.83;53.79
68026;SHT31;54819;48.030;14.710;2023-06-22T14:33:45;31.79;53.66
68026;SHT31;54819;48.030;14.710;2023-06-22T14:36:13;31.77;53.95
68026;SHT31;54819;48.030;14.710;2023-06-22T14:38:42;31.78;53.98
68026;SHT31;54819;48.030;14.710;2023-06-22T14:41:09;31.68;53.73
68026;SHT31;54819;48.030;14.710;2023-06-22T14:43:47;31.62;54.01
68026;SHT31;54819;48.030;14.710;2023-06-22T14:46:14;31.58;54.06
68026;SHT31;54819;48.030;14.710;2023-06-22T14:48:42;31.51;54.15
68026;SHT31;54819;48.030;14.710;2023-06-22T14:51:10;31.44;54.10
68026;SHT31;54819;48.030;14.710;2023-06-22T14:53:43;31.31;54.43
68026;SHT31;54819;48.030;14.710;2023-06-22T14:56:11;31.17;54.61
68026;SHT31;54819;48.030;14.710;2023-06-22T14:58:39;31.09;54.76
68026;SHT31;54819;48.030;14.710;2023-06-22T15:01:07;31.11;54.92
68026;SHT31;54819;48.030;14.710;2023-06-22T15:03:34;31.16;54.94
68026;SHT31;54819;48.030;14.710;2023-06-22T15:06:03;31.23;54.76
68026;SHT31;54819;48.030;14.710;2023-06-22T15:08:30;31.28;54.71
68026;SHT31;54819;48.030;14.710;2023-06-22T15:11:00;31.32;54.61
68026;SHT31;54819;48.030;14.710;2023-06-22T15:13:29;31.35;54.48
68026;SHT31;54819;48.030;14.710;2023-06-22T15:16:02;31.39;54.27
68026;SHT31;54819;48.030;14.710;2023-06-22T15:18:30;31.42;54.30
68026;SHT31;54819;48.030;14.710;2023-06-22T15:20:57;31.40;54.17
68026;SHT31;54819;48.030;14.710;2023-06-22T15:23:26;31.36;54.26
68026;SHT31;54819;48.030;14.710;2023-06-22T15:25:52;31.33;54.58
68026;SHT31;54819;48.030;14.710;2023-06-22T15:28:19;31.36;54.71
68026;SHT31;54819;48.030;14.710;2023-06-22T15:30:48;31.39;54.70